Wednesday, September 17, 2014
11:37 UTC
  |  Log In   |  Register Free
Airport Search:

Teterboro Airport
(KTEB)

Airport information sponsored by:
Landmark Aviation - TEB at Teterboro (KTEB), Teterboro, NJ
FAA data valid effective July 24, 2014 until September 18, 2014 (unless otherwise noted).

 
 
 
 
 
 
 
 
 
 
 
 
 
 

Current Aviation Weather for Teterboro Airport (KTEB)

The most recent METAR observation for KTEB was updated at: 1120
METAR Summary (Translated METAR)
KTEB
171051Z 35004KT 10SM CLR 12/08 A3004 RMK AO2 SLP172 T01170083
KLGA
171051Z 00000KT 10SM FEW080 16/10 A3004 RMK AO2 SLP172 T01560100
(9.6 nm SE from KTEB)
KCDW
171053Z 00000KT 6SM BR CLR 08/07 A3006 RMK AO2 SLP184 T00780067
(10.1 nm NW from KTEB)
TAF Summary (Translated TAF)
KTEB
170830Z 1709/1806 VRB02KT P6SM SKC FM171900 18006KT P6SM SCT050 SCT250 FM180000 VRB03KT P6SM SCT250
KLGA
(9.6 nm SE from KTEB)
170830Z 1709/1806 36004KT P6SM SKC FM171400 03006KT P6SM SKC FM171900 18010KT P6SM SCT050 SCT250 FM180200 20005KT P6SM SCT250
  Airport Weather Conditions for KTEB

 Current Weather at TEB
53° F
Fair
Northwest winds at 5.8 mph
TEB NOAA Radar

Pressure: 30.03 in
Humidity: 80%
Wind: Northwest at 5.8 MPH (5 KT)
Dew Point: 46.9°F
Visibility: 10.00 mi


Airport Weather Forecast for KTEB

Translated METAR and TAF for KTEB
Translated METAR for KTEB (1131 UTC 17 September 2014)
found at http://aviationweather.gov/adds/metars/
 
METAR text: KTEB 171051Z 35004KT 10SM CLR 12/08 A3004 RMK AO2 SLP172 T01170083
Conditions at: KTEB (TETERBORO , NJ, US) observed 1051 UTC 17 September 2014
Temperature: 11.7°C (53°F)
Dewpoint: 8.3°C (47°F) [RH = 80%]
Pressure (altimeter): 30.04 inches Hg (1017.4 mb)
[Sea-level pressure: 1017.2 mb]
Winds: from the N (350 degrees) at 5 MPH (4 knots; 2.1 m/s)
Visibility: 10 or more miles (16+ km)
Ceiling: at least 12,000 feet AGL
Clouds: sky clear below 12,000 feet AGL
Weather: no significant weather observed at this time
Translated TAF for KTEB
Forecast for: KTEB (TETERBORO , NJ, US)
TAF Text: KTEB 171124Z 1712/1812 35004KT P6SM FEW050
Forecast period: 1200 to 1800 UTC 17 September 2014
Forecast type: FROM: standard forecast or significant change
Winds: from the N (350 degrees) at 5 MPH (4 knots; 2.1 m/s)
Visibility: 6 or more miles (10+ km)
Clouds: few clouds at 5000 feet AGL
Weather: no significant weather forecast for this period
TAF Text: FM171800 18006KT P6SM SCT050
Forecast period: 1800 UTC 17 September 2014 to 0000 UTC 18 September 2014
Forecast type: FROM: standard forecast or significant change
Winds: from the S (180 degrees) at 7 MPH (6 knots; 3.1 m/s)
Visibility: 6 or more miles (10+ km)
Clouds: scattered clouds at 5000 feet AGL
Weather: no significant weather forecast for this period
TAF Text: FM180000 VRB03KT P6SM SCT070
Forecast period: 0000 to 1200 UTC 18 September 2014
Forecast type: FROM: standard forecast or significant change
Winds: variable direction winds at 3 MPH (3 knots; 1.6 m/s)
Visibility: 6 or more miles (10+ km)
Clouds: scattered clouds at 7000 feet AGL
Weather: no significant weather forecast for this period

Find All Airport Services Find A Hotel Find A Rental Car Find A Golf Course Find A Restaurant $100 Hamburger



FBO's on the Field
FBO Company Facility Photos Services Transportation Aviation Fuel Prices: Prices include tax
Catering Weather Repair Courtesy Rental Type 100LL JetA JetA+ MOGAS 8087
 
Landmark Aviation - TEB

Landmark Aviation - TEB logo
Currently rated 4.2 by 5 people
FS:
Last Updated: Sep-16
Login to update fuel prices
SS:
Contact Landmark Aviation - TEBMore FBO Information
 
Atlantic Aviation

Currently rated 4 by 1 person
FS:Texaco
Last Updated: Sep-15
Login to update fuel prices
SS:
Contact Atlantic AviationMore FBO Information
 
Jet Aviation

Currently rated 4.7 by 3 people
FS:Phillips66
Last Updated: Sep-16
Login to update fuel prices
SS:
Contact Jet AviationMore FBO Information
 
Meridian Teterboro

Currently rated 4.7 by 2 people
FS:Shell
Last Updated: Sep-04
Login to update fuel prices
SS:
Contact Meridian TeterboroMore FBO Information
 
Signature Flight Support

Currently rated 3.4 by 1 person
FS:Independent
Last Updated: Sep-16
Login to update fuel prices
SS:
Contact Signature Flight SupportMore FBO Information
 
Add another FBO Facility Photos Catering Weather Repair Courtesy Rental Type 100LL JetA JetA+ MOGAS 8087
Services Transportation Aviation Fuel Prices: Prices include tax


model-print
model-print
model-print
model-print